Aeroporto :
LOGIN :

Iscrizione | Disclaimer

   EN    FR    IT 

 










Sommario :    VFR   VFR Marginale   IFR   IFR Intensivo   IFR Molto Intensivo
Visibilità : 
Base nubi : 
>= 8 km
>= 3000ft
5 / 8 km
1000 / 3000 ft
1500m / 5 km
500 / 1000 ft
800 / 1500m
200 / 500 ft
< 800m
< 200 ft
Simboli :   Temporali  Nebbia  Neve Forte  Precipitazioni Forti  Vento > 20 kt
SIGMETs :   Varie  Temporali  Ghiacco  Turbolenza  Onda orograficha  Ceneri Vulcaniche






- Altitudine del aeroporto : 791 ft
- Codice IATA : KRK


EPKK - Krakow-Balice

ULTIMO METAR :
  • 061730Z 23006KT CAVOK M01/M05 Q1015

METARs OBSOLETI :
  • 061700Z 25009KT CAVOK M01/M05 Q1015
  • 061630Z 25009KT CAVOK M01/M04 Q1015
  • 061600Z 24007KT CAVOK M02/M05 Q1015
  • 061530Z 22006KT CAVOK M00/M04 Q1015
  • 061500Z 21005KT CAVOK 01/M04 Q1015

TAF TAF EPKK
Valido dal 06 a 18 ore il 07 a 18 ore UTC


061730Z 0618/0718 25010KT CAVOK
BECMG 0618/0620 VRB02KT
TEMPO 0621/0706 4000 BR
BECMG 0706/0709 24010KT
TEMPO 0706/0710 25015G30KT 2000 SN BKN014
TEMPO 0710/0718 25015G25KT 4000 RA BR BKN014



MetMap, La meteo Aeronautica in un colpo d'occhio ! - Copyright ORBIFLY Dicembre 2007 - Disclaimer

ORBIFLY MET'MAP TEAM :

Programmazione e sviluppo : Alexandra Zaïnal
Concezione : Baudouin d'Aumeries
Aiuto per la programmazione : Marc-Olivier Méhu
Supporto tecnico e logistico : Manuel Goepfert
Aiuto per la traduzione : Arnaldo La Scala

Contatto : metmap@orbifly.com




FONTI E CREDITI :

   NOAA